SMI weather

Samos Airport
Samos Island, Samos, Greece

Public forecast

Using degrees Celsius for public forecast. Weather courtesy of forecast.io.

Current aviation weather report (METAR) for Samos Airport

Retrieved 2020/06/01 21:50 UTC (49 minutes ago):

LGSM 012150Z 00000KT 9999 FEW016TCU SCT025 15/13 Q1009

Aviation forecast (TAF) for Samos Airport

Forecast is more than 12 hours old.

Retrieved 2012/09/21 03:06 UTC (8 years ago):

TAF LGSM 210200Z 2103/2115 VRB05KT 9999 FEW020 BECMG 2104/2106 30012KT